createdAt,value
2018-02-27T00:01:55.477Z,95.60
2018-02-27T00:04:22.945Z,95.40
2018-02-27T00:06:50.401Z,95.70
2018-02-27T00:09:17.878Z,95.80
2018-02-27T00:11:46.102Z,97.40
2018-02-27T00:14:13.567Z,97.00
2018-02-27T00:16:41.029Z,97.10
2018-02-27T00:19:08.486Z,96.90
2018-02-27T00:21:35.945Z,96.80
2018-02-27T00:24:03.401Z,96.60
2018-02-27T00:26:30.862Z,97.30
2018-02-27T00:28:58.317Z,97.20
2018-02-27T00:31:25.782Z,97.30
2018-02-27T00:33:53.242Z,96.50
2018-02-27T00:36:20.706Z,96.90
2018-02-27T00:38:48.166Z,97.20
2018-02-27T00:41:15.643Z,97.60
2018-02-27T00:43:43.861Z,98.30
2018-02-27T00:46:11.321Z,98.20
2018-02-27T00:48:38.769Z,97.90
2018-02-27T00:51:06.234Z,98.40
2018-02-27T00:53:33.689Z,98.60
2018-02-27T00:56:01.154Z,99.40
2018-02-27T00:58:28.607Z,99.00
2018-02-27T01:00:56.065Z,98.70
2018-02-27T01:03:23.514Z,99.20
2018-02-27T01:05:50.982Z,99.00
2018-02-27T01:08:18.438Z,99.60
2018-02-27T01:10:45.901Z,99.90
2018-02-27T01:13:13.392Z,99.90
2018-02-27T01:15:40.815Z,99.90
2018-02-27T01:18:08.282Z,99.90
2018-02-27T01:20:35.738Z,99.90
2018-02-27T01:23:03.200Z,99.90
2018-02-27T01:25:30.659Z,99.90
2018-02-27T01:27:58.128Z,99.90
2018-02-27T01:30:26.359Z,99.90
2018-02-27T01:32:53.822Z,99.90
2018-02-27T01:35:21.284Z,99.90
2018-02-27T01:37:48.747Z,99.90
2018-02-27T01:40:16.202Z,99.90
2018-02-27T01:42:43.662Z,99.90
2018-02-27T01:45:11.121Z,99.90
2018-02-27T01:47:38.590Z,99.90
2018-02-27T01:50:06.063Z,99.90
2018-02-27T01:52:34.289Z,99.90
2018-02-27T01:55:01.745Z,99.90
2018-02-27T01:57:29.201Z,99.90
2018-02-27T01:59:56.659Z,99.90
2018-02-27T02:02:24.122Z,99.90
2018-02-27T02:04:51.582Z,99.90
2018-02-27T02:07:19.058Z,99.90
2018-02-27T02:09:46.517Z,99.90
2018-02-27T02:12:13.977Z,99.90
2018-02-27T02:14:41.441Z,99.90
2018-02-27T02:17:09.665Z,99.90
2018-02-27T02:19:37.138Z,99.90
2018-02-27T02:22:04.590Z,99.90
2018-02-27T02:24:32.075Z,99.90
2018-02-27T02:26:59.532Z,99.90
2018-02-27T02:29:26.993Z,99.90
2018-02-27T02:31:54.455Z,99.90
2018-02-27T02:34:21.911Z,99.90
2018-02-27T02:36:49.363Z,99.90
2018-02-27T02:39:16.834Z,99.90
2018-02-27T02:41:45.058Z,99.90
2018-02-27T02:44:12.527Z,99.90
2018-02-27T02:46:39.989Z,99.90
2018-02-27T02:49:07.458Z,99.90
2018-02-27T02:51:34.926Z,99.90
2018-02-27T02:54:02.409Z,99.90
2018-02-27T02:56:29.870Z,99.90
2018-02-27T02:58:57.338Z,99.90
2018-02-27T03:01:24.790Z,99.90
2018-02-27T03:03:52.258Z,99.90
2018-02-27T03:06:19.720Z,99.90
2018-02-27T03:08:47.193Z,99.90
2018-02-27T03:11:14.658Z,99.90
2018-02-27T03:13:42.125Z,99.90
2018-02-27T03:16:09.583Z,99.90
2018-02-27T03:18:37.042Z,99.90
2018-02-27T03:21:04.497Z,99.90
2018-02-27T03:23:31.972Z,99.90
2018-02-27T03:26:00.200Z,99.90
2018-02-27T03:28:27.673Z,99.90
2018-02-27T03:30:55.130Z,99.90
2018-02-27T03:33:22.590Z,99.90
2018-02-27T03:35:50.054Z,99.90
2018-02-27T03:38:17.522Z,99.90
2018-02-27T03:40:45.772Z,99.90
2018-02-27T03:43:13.222Z,99.90
2018-02-27T03:45:40.689Z,99.90
2018-02-27T03:48:08.150Z,99.90
2018-02-27T03:50:35.614Z,99.90
2018-02-27T03:53:03.082Z,99.90
2018-02-27T03:55:30.565Z,99.90
2018-02-27T03:57:58.027Z,99.90
2018-02-27T04:00:25.501Z,99.90
2018-02-27T04:02:52.968Z,99.90
2018-02-27T04:05:20.434Z,99.90
2018-02-27T04:07:47.902Z,99.90
2018-02-27T04:10:15.373Z,99.90
2018-02-27T04:12:42.839Z,99.90
2018-02-27T04:15:11.075Z,99.90
2018-02-27T04:17:38.533Z,99.90
2018-02-27T04:20:06.002Z,99.90
2018-02-27T04:22:33.456Z,99.90
2018-02-27T04:25:00.918Z,99.90
2018-02-27T04:27:28.389Z,99.90
2018-02-27T04:29:55.854Z,99.90
2018-02-27T04:32:23.311Z,99.90
2018-02-27T04:34:51.541Z,99.90
2018-02-27T04:37:19.012Z,99.90
2018-02-27T04:39:46.473Z,99.90
2018-02-27T04:42:13.937Z,99.90
2018-02-27T04:44:41.399Z,99.90
2018-02-27T04:47:08.869Z,99.90
2018-02-27T04:49:36.318Z,99.90
2018-02-27T04:52:03.781Z,99.90
2018-02-27T04:54:32.018Z,99.90
2018-02-27T04:56:59.485Z,99.90
2018-02-27T04:59:26.954Z,99.90
2018-02-27T05:01:54.417Z,99.90
2018-02-27T05:04:21.887Z,99.90
2018-02-27T05:06:50.122Z,99.90
2018-02-27T05:09:17.591Z,99.90
2018-02-27T05:11:45.067Z,99.90
2018-02-27T05:14:13.314Z,99.90
2018-02-27T05:16:40.782Z,99.90
2018-02-27T05:19:08.250Z,99.90
2018-02-27T05:21:35.709Z,99.90
2018-02-27T05:24:03.174Z,99.90
2018-02-27T05:26:30.633Z,99.90
2018-02-27T05:28:58.858Z,99.90
2018-02-27T05:31:26.325Z,99.90
2018-02-27T05:33:53.806Z,99.90
2018-02-27T05:36:21.269Z,99.90
2018-02-27T05:38:48.725Z,99.90
2018-02-27T05:41:16.181Z,99.90
2018-02-27T05:43:43.643Z,99.90
2018-02-27T05:46:11.097Z,99.90
2018-02-27T05:48:39.331Z,99.90
2018-02-27T05:51:06.802Z,99.90
2018-02-27T05:53:34.258Z,99.90
2018-02-27T05:56:01.722Z,99.90
2018-02-27T05:58:29.234Z,99.90
2018-02-27T06:00:56.702Z,99.90
2018-02-27T06:03:24.170Z,99.90
2018-02-27T06:05:51.621Z,99.90
2018-02-27T06:08:19.078Z,99.90
2018-02-27T06:10:46.536Z,99.90
2018-02-27T06:13:13.997Z,99.90
2018-02-27T06:15:41.545Z,99.90
2018-02-27T06:18:09.006Z,99.90
2018-02-27T06:20:36.461Z,99.90
2018-02-27T06:23:03.942Z,99.90
2018-02-27T06:25:31.402Z,99.90
2018-02-27T06:27:58.866Z,99.90
2018-02-27T06:30:26.323Z,99.90
2018-02-27T06:32:53.791Z,99.90
2018-02-27T06:35:21.254Z,99.90
2018-02-27T06:37:48.710Z,99.90
2018-02-27T06:40:16.169Z,99.90
2018-02-27T06:42:44.401Z,99.90
2018-02-27T06:45:11.859Z,99.90
2018-02-27T06:47:39.339Z,99.90
2018-02-27T06:50:06.818Z,99.90
2018-02-27T06:52:35.042Z,99.90
2018-02-27T06:55:02.499Z,99.90
2018-02-27T06:57:29.970Z,99.90
2018-02-27T06:59:57.434Z,99.90
2018-02-27T07:02:24.905Z,99.90
2018-02-27T07:04:52.369Z,99.90
2018-02-27T07:07:19.836Z,99.90
2018-02-27T07:09:48.061Z,99.90
2018-02-27T07:12:15.537Z,99.90
2018-02-27T07:14:42.994Z,99.90
2018-02-27T07:17:10.469Z,99.90
2018-02-27T07:19:37.926Z,99.90
2018-02-27T07:22:05.401Z,99.90
2018-02-27T07:24:33.650Z,99.70
2018-02-27T07:27:01.127Z,99.70
2018-02-27T07:29:29.353Z,99.90
2018-02-27T07:31:56.825Z,99.90
2018-02-27T07:34:24.295Z,99.90
2018-02-27T07:36:51.771Z,99.20
2018-02-27T07:39:20.002Z,99.60
2018-02-27T07:41:47.466Z,99.50
2018-02-27T07:44:14.939Z,99.20
2018-02-27T07:46:42.405Z,98.50
2018-02-27T07:49:09.874Z,99.00
2018-02-27T07:51:38.105Z,99.10
2018-02-27T07:54:05.574Z,99.10
2018-02-27T07:56:33.037Z,98.40
2018-02-27T07:59:00.515Z,99.30
2018-02-27T08:01:28.744Z,98.80
2018-02-27T08:03:56.239Z,98.80
2018-02-27T08:06:23.697Z,99.00
2018-02-27T08:08:51.957Z,99.20
2018-02-27T08:11:19.410Z,99.00
2018-02-27T08:13:46.917Z,98.80
2018-02-27T08:16:15.152Z,98.10
2018-02-27T08:18:42.610Z,98.10
2018-02-27T08:21:10.073Z,98.20
2018-02-27T08:23:38.308Z,98.00
2018-02-27T08:26:05.775Z,98.20
2018-02-27T08:28:33.250Z,98.50
2018-02-27T08:31:00.703Z,98.20
2018-02-27T08:33:28.179Z,97.50
2018-02-27T08:35:55.643Z,97.00
2018-02-27T08:38:23.881Z,97.40
2018-02-27T08:40:51.345Z,97.30
2018-02-27T08:43:18.820Z,96.40
2018-02-27T08:45:46.273Z,96.10
2018-02-27T08:48:13.740Z,96.00
2018-02-27T08:50:41.970Z,96.40
2018-02-27T08:53:09.442Z,96.40
2018-02-27T08:55:37.670Z,96.50
2018-02-27T08:58:05.137Z,96.80
2018-02-27T09:00:32.592Z,96.40
2018-02-27T09:03:00.042Z,95.30
2018-02-27T09:05:27.521Z,95.20
2018-02-27T09:07:54.980Z,95.00
2018-02-27T09:10:22.458Z,94.50
2018-02-27T09:12:49.915Z,94.60
2018-02-27T09:15:17.393Z,95.20
2018-02-27T09:17:44.858Z,95.00
2018-02-27T09:20:13.118Z,94.30
2018-02-27T09:22:40.558Z,94.30
2018-02-27T09:25:08.021Z,94.30
2018-02-27T09:27:35.485Z,94.30
2018-02-27T09:30:02.953Z,94.20
2018-02-27T09:32:31.176Z,94.00
2018-02-27T09:34:58.681Z,93.80
2018-02-27T09:37:26.113Z,93.20
2018-02-27T09:39:53.577Z,92.40
2018-02-27T09:42:21.045Z,92.80
2018-02-27T09:44:48.511Z,92.80
2018-02-27T09:47:15.975Z,92.20
2018-02-27T09:49:44.208Z,92.00
2018-02-27T09:52:11.709Z,91.90
2018-02-27T09:54:39.958Z,91.40
2018-02-27T09:57:07.438Z,91.10
2018-02-27T09:59:35.670Z,90.90
2018-02-27T10:02:03.140Z,90.90
2018-02-27T10:04:30.614Z,91.00
2018-02-27T10:06:58.085Z,90.30
2018-02-27T10:09:26.316Z,89.10
2018-02-27T10:11:53.769Z,89.10
2018-02-27T10:14:21.237Z,87.70
2018-02-27T10:16:48.705Z,88.80
2018-02-27T10:19:16.173Z,88.30
2018-02-27T10:21:43.645Z,90.00
2018-02-27T10:24:11.888Z,87.60
2018-02-27T10:26:39.364Z,87.60
2018-02-27T10:29:06.829Z,85.10
2018-02-27T10:31:35.058Z,86.20
2018-02-27T10:34:02.543Z,86.20
2018-02-27T10:36:30.022Z,85.50
2018-02-27T10:38:58.254Z,85.90
2018-02-27T10:41:25.735Z,85.90
2018-02-27T10:43:53.200Z,85.00
2018-02-27T10:46:20.666Z,84.30
2018-02-27T10:48:48.899Z,83.70
2018-02-27T10:51:16.371Z,83.70
2018-02-27T10:53:43.837Z,81.90
2018-02-27T10:56:11.305Z,83.90
2018-02-27T10:58:38.760Z,84.80
2018-02-27T11:01:08.988Z,82.50
2018-02-27T11:03:36.409Z,82.40
2018-02-27T11:06:03.885Z,81.30
2018-02-27T11:08:31.342Z,81.30
2018-02-27T11:10:58.816Z,79.40
2018-02-27T11:13:27.048Z,73.60
2018-02-27T11:15:54.518Z,73.60
2018-02-27T11:18:21.985Z,70.40
2018-02-27T11:20:49.459Z,69.30
2018-02-27T11:23:17.684Z,67.00
2018-02-27T11:25:45.150Z,66.90
2018-02-27T11:28:12.609Z,68.40
2018-02-27T11:30:40.850Z,67.00
2018-02-27T11:33:08.317Z,67.00
2018-02-27T11:35:35.777Z,67.90
2018-02-27T11:38:03.236Z,66.10
2018-02-27T11:40:30.709Z,63.30
2018-02-27T11:42:58.173Z,63.90
2018-02-27T11:45:25.655Z,65.50
2018-02-27T11:47:53.108Z,66.70
2018-02-27T11:50:20.589Z,64.50
2018-02-27T11:52:48.809Z,63.90
2018-02-27T11:55:16.288Z,63.90
2018-02-27T11:57:43.749Z,62.70
2018-02-27T12:00:11.217Z,62.70
2018-02-27T12:02:39.437Z,62.20
2018-02-27T12:05:06.918Z,62.00
2018-02-27T12:07:35.145Z,62.80
2018-02-27T12:10:02.609Z,62.90
2018-02-27T12:12:30.085Z,63.10
2018-02-27T12:14:57.551Z,60.70
2018-02-27T12:17:25.036Z,61.00
2018-02-27T12:19:52.487Z,58.60
2018-02-27T12:22:19.965Z,59.00
2018-02-27T12:24:48.190Z,61.80
2018-02-27T12:27:15.661Z,61.60
2018-02-27T12:29:43.121Z,59.90
2018-02-27T12:32:10.589Z,59.70
2018-02-27T12:34:38.053Z,58.70
2018-02-27T12:37:05.551Z,57.30
2018-02-27T12:39:33.017Z,57.80
2018-02-27T12:42:00.489Z,57.80
2018-02-27T12:44:27.954Z,57.90
2018-02-27T12:46:55.420Z,58.00
2018-02-27T12:49:23.643Z,58.70
2018-02-27T12:51:51.885Z,58.20
2018-02-27T12:54:19.335Z,58.10
2018-02-27T12:56:46.858Z,57.70
2018-02-27T12:59:14.311Z,57.30
2018-02-27T13:01:41.778Z,57.90
2018-02-27T13:04:09.238Z,55.80
2018-02-27T13:06:36.705Z,55.30
2018-02-27T13:09:04.172Z,54.60
2018-02-27T13:11:31.633Z,55.40
2018-02-27T13:13:59.088Z,55.00
2018-02-27T13:16:26.563Z,55.60
2018-02-27T13:18:54.049Z,56.20
2018-02-27T13:21:22.282Z,55.20
2018-02-27T13:23:49.741Z,55.20
2018-02-27T13:26:17.227Z,54.10
2018-02-27T13:28:45.459Z,53.80
2018-02-27T13:31:12.921Z,53.80
2018-02-27T13:33:40.381Z,54.60
2018-02-27T13:36:07.846Z,54.70
2018-02-27T13:38:35.305Z,55.70
2018-02-27T13:41:02.762Z,56.50
2018-02-27T13:43:30.241Z,55.80
2018-02-27T13:45:58.461Z,55.80
2018-02-27T13:48:25.932Z,55.80
2018-02-27T13:50:53.398Z,55.90
2018-02-27T13:53:20.862Z,55.70
2018-02-27T13:55:48.326Z,55.30
2018-02-27T13:58:15.817Z,55.30
2018-02-27T14:00:43.277Z,54.10
2018-02-27T14:03:10.744Z,53.70
2018-02-27T14:05:38.221Z,52.90
2018-02-27T14:08:05.685Z,53.00
2018-02-27T14:10:33.181Z,54.10
2018-02-27T14:13:01.423Z,55.00
2018-02-27T14:15:28.888Z,54.80
2018-02-27T14:17:56.357Z,54.00
2018-02-27T14:20:24.590Z,54.60
2018-02-27T14:22:52.061Z,54.00
2018-02-27T14:25:19.522Z,54.30
2018-02-27T14:27:46.990Z,54.20
2018-02-27T14:30:14.453Z,53.80
2018-02-27T14:32:41.920Z,53.40
2018-02-27T14:35:10.153Z,52.60
2018-02-27T14:37:37.616Z,52.60
2018-02-27T14:40:05.077Z,52.70
2018-02-27T14:42:32.540Z,53.60
2018-02-27T14:45:00.000Z,53.70
2018-02-27T14:47:27.465Z,53.60
2018-02-27T14:49:54.937Z,53.60
2018-02-27T14:52:23.170Z,53.90
2018-02-27T14:54:50.633Z,53.90
2018-02-27T14:57:18.100Z,54.30
2018-02-27T14:59:45.560Z,54.20
2018-02-27T15:02:13.045Z,53.10
2018-02-27T15:04:41.274Z,51.90
2018-02-27T15:07:08.742Z,51.90
2018-02-27T15:09:36.200Z,51.60
2018-02-27T15:12:03.673Z,52.00
2018-02-27T15:14:31.137Z,51.60
2018-02-27T15:16:59.368Z,52.40
2018-02-27T15:19:26.915Z,51.80
2018-02-27T15:21:54.374Z,52.40
2018-02-27T15:24:21.834Z,52.60
2018-02-27T15:26:49.309Z,51.90
2018-02-27T15:29:16.846Z,51.70
2018-02-27T15:31:44.297Z,52.30
2018-02-27T15:34:11.795Z,51.70
2018-02-27T15:36:39.262Z,51.80
2018-02-27T15:39:06.734Z,51.10
2018-02-27T15:41:34.959Z,51.20
2018-02-27T15:44:02.425Z,51.20
2018-02-27T15:46:29.898Z,52.50
2018-02-27T15:48:57.370Z,52.60
2018-02-27T15:51:24.873Z,53.00
2018-02-27T15:53:52.304Z,53.30
2018-02-27T15:56:20.548Z,52.70
2018-02-27T15:58:48.018Z,52.60
2018-02-27T16:01:15.509Z,52.60
2018-02-27T16:03:42.933Z,52.40
2018-02-27T16:06:11.164Z,51.70
2018-02-27T16:08:38.643Z,51.70
2018-02-27T16:11:06.104Z,52.60
2018-02-27T16:13:33.627Z,52.60
2018-02-27T16:16:01.087Z,53.40
2018-02-27T16:18:28.553Z,53.90
2018-02-27T16:20:56.035Z,54.10
2018-02-27T16:23:23.493Z,53.90
2018-02-27T16:25:50.966Z,54.40
2018-02-27T16:28:19.206Z,54.30
2018-02-27T16:30:46.655Z,53.90
2018-02-27T16:33:14.122Z,54.30
2018-02-27T16:35:41.585Z,54.70
2018-02-27T16:38:09.054Z,54.40
2018-02-27T16:40:36.514Z,54.40
2018-02-27T16:43:03.977Z,54.90
2018-02-27T16:45:32.223Z,54.50
2018-02-27T16:47:59.682Z,54.50
2018-02-27T16:50:27.151Z,54.30
2018-02-27T16:52:54.627Z,54.60
2018-02-27T16:55:22.083Z,54.70
2018-02-27T16:57:50.309Z,54.90
2018-02-27T17:00:17.794Z,54.80
2018-02-27T17:02:45.256Z,55.30
2018-02-27T17:05:12.728Z,55.70
2018-02-27T17:07:40.967Z,56.90
2018-02-27T17:10:08.442Z,56.90
2018-02-27T17:12:35.926Z,56.80
2018-02-27T17:15:04.154Z,57.30
2018-02-27T17:17:31.621Z,57.30
2018-02-27T17:19:59.090Z,57.50
2018-02-27T17:22:26.548Z,57.40
2018-02-27T17:24:54.023Z,57.70
2018-02-27T17:27:22.335Z,59.30
2018-02-27T17:29:49.790Z,59.30
2018-02-27T17:32:17.253Z,58.80
2018-02-27T17:34:44.728Z,59.10
2018-02-27T17:37:12.209Z,59.60
2018-02-27T17:39:39.676Z,59.30
2018-02-27T17:42:07.911Z,59.50
2018-02-27T17:44:35.388Z,59.40
2018-02-27T17:47:02.833Z,59.70
2018-02-27T17:49:30.309Z,60.70
2018-02-27T17:51:57.763Z,61.20
2018-02-27T17:54:25.236Z,60.60
2018-02-27T17:56:52.685Z,61.00
2018-02-27T17:59:20.618Z,60.70
2018-02-27T18:01:48.065Z,61.80
2018-02-27T18:04:15.535Z,62.60
2018-02-27T18:06:44.887Z,63.00
2018-02-27T18:09:14.411Z,63.20
2018-02-27T18:11:44.678Z,64.70
2018-02-27T18:14:12.142Z,64.70
2018-02-27T18:16:41.407Z,65.50
2018-02-27T18:19:09.042Z,65.10
2018-02-27T18:21:38.224Z,63.70
2018-02-27T18:24:05.891Z,64.90
2018-02-27T18:26:33.349Z,64.30
2018-02-27T18:29:00.816Z,64.90
2018-02-27T18:31:30.230Z,64.60
2018-02-27T18:33:59.824Z,65.40
2018-02-27T18:36:27.281Z,65.70
2018-02-27T18:38:54.736Z,66.40
2018-02-27T18:41:22.201Z,66.90
2018-02-27T18:43:49.735Z,67.60
2018-02-27T18:46:17.162Z,67.60
2018-02-27T18:48:44.630Z,67.20
2018-02-27T18:51:12.099Z,67.30
2018-02-27T18:53:40.343Z,70.00
2018-02-27T18:56:07.808Z,69.80
2018-02-27T18:58:35.276Z,69.50
2018-02-27T19:01:02.802Z,70.10
2018-02-27T19:03:30.285Z,71.20
2018-02-27T19:05:57.762Z,71.80
2018-02-27T19:08:25.308Z,71.60
2018-02-27T19:10:52.736Z,72.00
2018-02-27T19:13:20.193Z,72.50
2018-02-27T19:15:47.661Z,72.90
2018-02-27T19:18:15.123Z,73.80
2018-02-27T19:20:42.589Z,75.30
2018-02-27T19:23:10.098Z,77.30
2018-02-27T19:25:37.569Z,76.80
2018-02-27T19:28:05.042Z,76.70
2018-02-27T19:30:32.509Z,77.50
2018-02-27T19:32:59.970Z,77.00
2018-02-27T19:35:27.450Z,78.20
2018-02-27T19:37:55.697Z,78.70
2018-02-27T19:40:23.209Z,78.70
2018-02-27T19:42:50.629Z,79.50
2018-02-27T19:45:18.869Z,81.90
2018-02-27T19:47:46.333Z,81.90
2018-02-27T19:50:13.814Z,83.00
2018-02-27T19:52:42.043Z,87.30
2018-02-27T19:55:09.592Z,86.40
2018-02-27T19:57:37.074Z,86.70
2018-02-27T20:00:04.532Z,87.30
2018-02-27T20:02:32.009Z,87.80
2018-02-27T20:04:59.485Z,88.70
2018-02-27T20:07:27.730Z,90.20
2018-02-27T20:09:55.186Z,90.20
2018-02-27T20:12:22.674Z,90.00
2018-02-27T20:14:50.913Z,90.50
2018-02-27T20:17:18.379Z,90.50
2018-02-27T20:19:45.843Z,91.10
2018-02-27T20:22:13.305Z,91.90
2018-02-27T20:24:40.930Z,92.10
2018-02-27T20:27:08.418Z,92.60
2018-02-27T20:29:35.885Z,93.00
2018-02-27T20:32:03.351Z,93.20
2018-02-27T20:34:32.394Z,94.30
2018-02-27T20:36:59.870Z,94.70
2018-02-27T20:39:27.324Z,94.60
2018-02-27T20:41:54.799Z,94.80
2018-02-27T20:44:22.259Z,95.10
2018-02-27T20:46:49.735Z,95.60
2018-02-27T20:49:17.973Z,96.20
2018-02-27T20:51:45.446Z,96.20
2018-02-27T20:54:12.926Z,96.50
2018-02-27T20:56:41.157Z,97.00
2018-02-27T20:59:08.621Z,97.00
2018-02-27T21:01:36.085Z,97.50
2018-02-27T21:04:03.552Z,97.70
2018-02-27T21:06:31.018Z,97.80
2018-02-27T21:08:59.253Z,97.10
2018-02-27T21:11:26.722Z,97.10
2018-02-27T21:13:54.185Z,97.60
2018-02-27T21:16:21.645Z,98.20
2018-02-27T21:18:49.109Z,98.40
2018-02-27T21:21:16.572Z,98.50
2018-02-27T21:23:44.801Z,98.70
2018-02-27T21:26:12.267Z,98.70
2018-02-27T21:28:39.744Z,99.90
2018-02-27T21:31:07.201Z,99.50
2018-02-27T21:33:34.672Z,99.90
2018-02-27T21:36:02.140Z,99.90
2018-02-27T21:38:30.381Z,99.90
2018-02-27T21:40:57.842Z,99.90
2018-02-27T21:43:25.312Z,99.90
2018-02-27T21:45:53.445Z,99.90
2018-02-27T21:48:20.909Z,99.90
2018-02-27T21:50:49.135Z,99.90
2018-02-27T21:53:16.601Z,99.90
2018-02-27T21:55:44.052Z,99.90
2018-02-27T21:58:11.544Z,99.90
2018-02-27T22:00:39.039Z,99.90
2018-02-27T22:03:06.506Z,99.90
2018-02-27T22:05:34.781Z,99.90
2018-02-27T22:08:02.256Z,99.90
2018-02-27T22:10:30.488Z,99.90
2018-02-27T22:12:57.949Z,99.90
2018-02-27T22:15:25.409Z,99.90
2018-02-27T22:17:54.234Z,99.90
2018-02-27T22:20:22.463Z,99.90
2018-02-27T22:22:49.978Z,99.90
2018-02-27T22:25:17.447Z,99.90
2018-02-27T22:27:44.941Z,99.90
2018-02-27T22:30:12.427Z,99.90
2018-02-27T22:32:40.707Z,99.90
2018-02-27T22:35:08.948Z,99.90
2018-02-27T22:37:36.411Z,99.90
2018-02-27T22:40:03.897Z,99.90
2018-02-27T22:42:32.130Z,99.90
2018-02-27T22:44:59.632Z,99.90
2018-02-27T22:47:27.881Z,99.90
2018-02-27T22:49:55.367Z,99.90
2018-02-27T22:52:22.834Z,99.90
2018-02-27T22:54:50.317Z,99.90
2018-02-27T22:57:17.792Z,99.90
2018-02-27T22:59:51.965Z,99.90
2018-02-27T23:02:19.795Z,99.90
2018-02-27T23:04:47.937Z,99.90
2018-02-27T23:07:15.427Z,99.90
2018-02-27T23:09:42.914Z,99.90
2018-02-27T23:12:10.385Z,99.90
2018-02-27T23:14:37.871Z,99.90
2018-02-27T23:17:05.367Z,99.90
2018-02-27T23:19:33.621Z,99.90
2018-02-27T23:22:01.107Z,99.90
2018-02-27T23:24:28.651Z,99.90
2018-02-27T23:26:57.846Z,99.90
2018-02-27T23:29:26.972Z,99.90
2018-02-27T23:31:54.621Z,99.90
2018-02-27T23:34:25.019Z,99.90
2018-02-27T23:36:52.478Z,99.90
2018-02-27T23:39:20.742Z,99.90
2018-02-27T23:41:48.278Z,99.90
2018-02-27T23:44:15.982Z,99.90
2018-02-27T23:46:44.221Z,99.90
2018-02-27T23:49:11.692Z,99.90
2018-02-27T23:51:39.208Z,99.90
2018-02-27T23:54:06.714Z,99.90
2018-02-27T23:56:34.202Z,99.90
2018-02-27T23:59:02.105Z,99.90
